sensor_id;sensor_type;location;lat;lon;timestamp;temperature;humidity
23102;DHT22;11720;51.214;22.574;2023-07-30T00:02:18;19.90;99.90
23102;DHT22;11720;51.214;22.574;2023-07-30T00:04:47;19.80;99.90
23102;DHT22;11720;51.214;22.574;2023-07-30T00:07:14;19.80;99.90
23102;DHT22;11720;51.214;22.574;2023-07-30T00:09:40;19.80;99.90
23102;DHT22;11720;51.214;22.574;2023-07-30T00:12:07;19.80;99.90
23102;DHT22;11720;51.214;22.574;2023-07-30T00:16:59;19.70;99.90
23102;DHT22;11720;51.214;22.574;2023-07-30T00:19:25;19.70;99.90
23102;DHT22;11720;51.214;22.574;2023-07-30T00:21:51;19.70;99.90
23102;DHT22;11720;51.214;22.574;2023-07-30T00:24:19;19.70;99.90
23102;DHT22;11720;51.214;22.574;2023-07-30T00:26:44;19.60;99.90
23102;DHT22;11720;51.214;22.574;2023-07-30T00:29:10;19.70;99.90
23102;DHT22;11720;51.214;22.574;2023-07-30T00:31:36;19.60;99.90
23102;DHT22;11720;51.214;22.574;2023-07-30T00:34:01;19.60;99.90
23102;DHT22;11720;51.214;22.574;2023-07-30T00:36:27;19.50;99.90
23102;DHT22;11720;51.214;22.574;2023-07-30T00:38:53;19.50;99.90
23102;DHT22;11720;51.214;22.574;2023-07-30T00:41:18;19.40;99.90
23102;DHT22;11720;51.214;22.574;2023-07-30T00:43:44;19.40;99.90
23102;DHT22;11720;51.214;22.574;2023-07-30T00:46:11;19.40;99.90
23102;DHT22;11720;51.214;22.574;2023-07-30T00:48:37;19.40;99.90
23102;DHT22;11720;51.214;22.574;2023-07-30T00:51:03;19.30;99.90
23102;DHT22;11720;51.214;22.574;2023-07-30T00:53:29;19.20;99.90
23102;DHT22;11720;51.214;22.574;2023-07-30T00:55:55;19.20;99.90
23102;DHT22;11720;51.214;22.574;2023-07-30T00:58:21;19.20;99.90
23102;DHT22;11720;51.214;22.574;2023-07-30T01:00:47;19.20;99.90
23102;DHT22;11720;51.214;22.574;2023-07-30T01:03:13;19.20;99.90
23102;DHT22;11720;51.214;22.574;2023-07-30T01:05:39;19.20;99.90
23102;DHT22;11720;51.214;22.574;2023-07-30T01:08:04;19.20;99.90
23102;DHT22;11720;51.214;22.574;2023-07-30T01:10:32;19.20;99.90
23102;DHT22;11720;51.214;22.574;2023-07-30T01:13:02;19.20;99.90
23102;DHT22;11720;51.214;22.574;2023-07-30T01:15:28;19.10;99.90
23102;DHT22;11720;51.214;22.574;2023-07-30T01:17:54;19.10;99.90
23102;DHT22;11720;51.214;22.574;2023-07-30T01:20:21;19.10;99.90
23102;DHT22;11720;51.214;22.574;2023-07-30T01:22:47;19.10;99.90
23102;DHT22;11720;51.214;22.574;2023-07-30T01:27:44;19.00;99.90
23102;DHT22;11720;51.214;22.574;2023-07-30T01:30:22;19.00;99.90
23102;DHT22;11720;51.214;22.574;2023-07-30T01:32:49;18.90;99.90
23102;DHT22;11720;51.214;22.574;2023-07-30T01:35:17;18.80;99.90
23102;DHT22;11720;51.214;22.574;2023-07-30T01:37:44;18.80;99.90
23102;DHT22;11720;51.214;22.574;2023-07-30T01:40:11;18.70;99.90
23102;DHT22;11720;51.214;22.574;2023-07-30T01:42:37;18.70;99.90
23102;DHT22;11720;51.214;22.574;2023-07-30T01:45:04;18.60;99.90
23102;DHT22;11720;51.214;22.574;2023-07-30T01:47:30;18.60;99.90
23102;DHT22;11720;51.214;22.574;2023-07-30T01:49:56;18.60;99.90
23102;DHT22;11720;51.214;22.574;2023-07-30T01:52:22;18.60;99.90
23102;DHT22;11720;51.214;22.574;2023-07-30T01:54:47;18.60;99.90
23102;DHT22;11720;51.214;22.574;2023-07-30T01:57:13;18.50;99.90
23102;DHT22;11720;51.214;22.574;2023-07-30T01:59:39;18.50;99.90
23102;DHT22;11720;51.214;22.574;2023-07-30T02:02:04;18.50;99.90
23102;DHT22;11720;51.214;22.574;2023-07-30T02:04:30;18.50;99.90
23102;DHT22;11720;51.214;22.574;2023-07-30T02:06:56;18.40;99.90
23102;DHT22;11720;51.214;22.574;2023-07-30T02:09:21;18.40;99.90
23102;DHT22;11720;51.214;22.574;2023-07-30T02:11:47;18.40;99.90
23102;DHT22;11720;51.214;22.574;2023-07-30T02:14:12;18.30;99.90
23102;DHT22;11720;51.214;22.574;2023-07-30T02:16:38;18.30;99.90
23102;DHT22;11720;51.214;22.574;2023-07-30T02:19:04;18.30;99.90
23102;DHT22;11720;51.214;22.574;2023-07-30T02:21:29;18.30;99.90
23102;DHT22;11720;51.214;22.574;2023-07-30T02:23:59;18.20;99.90
23102;DHT22;11720;51.214;22.574;2023-07-30T02:26:24;18.30;99.90
23102;DHT22;11720;51.214;22.574;2023-07-30T02:28:50;18.20;99.90
23102;DHT22;11720;51.214;22.574;2023-07-30T02:31:15;18.10;99.90
23102;DHT22;11720;51.214;22.574;2023-07-30T02:33:41;18.10;99.90
23102;DHT22;11720;51.214;22.574;2023-07-30T02:36:07;18.10;99.90
23102;DHT22;11720;51.214;22.574;2023-07-30T02:38:32;18.10;99.90
23102;DHT22;11720;51.214;22.574;2023-07-30T02:40:58;18.00;99.90
23102;DHT22;11720;51.214;22.574;2023-07-30T02:43:24;18.00;99.90
23102;DHT22;11720;51.214;22.574;2023-07-30T02:45:49;18.00;99.90
23102;DHT22;11720;51.214;22.574;2023-07-30T02:48:15;18.00;99.90
23102;DHT22;11720;51.214;22.574;2023-07-30T02:50:41;17.90;99.90
23102;DHT22;11720;51.214;22.574;2023-07-30T02:53:06;17.90;99.90
23102;DHT22;11720;51.214;22.574;2023-07-30T02:55:32;17.90;99.90
23102;DHT22;11720;51.214;22.574;2023-07-30T02:57:57;17.90;99.90
23102;DHT22;11720;51.214;22.574;2023-07-30T03:00:23;17.90;99.90
23102;DHT22;11720;51.214;22.574;2023-07-30T03:02:49;17.90;99.90
23102;DHT22;11720;51.214;22.574;2023-07-30T03:05:14;17.80;99.90
23102;DHT22;11720;51.214;22.574;2023-07-30T03:07:40;17.80;99.90
23102;DHT22;11720;51.214;22.574;2023-07-30T03:10:06;17.80;99.90
23102;DHT22;11720;51.214;22.574;2023-07-30T03:14:58;17.80;99.90
23102;DHT22;11720;51.214;22.574;2023-07-30T03:17:23;17.70;99.90
23102;DHT22;11720;51.214;22.574;2023-07-30T03:22:15;17.60;99.90
23102;DHT22;11720;51.214;22.574;2023-07-30T03:24:41;17.60;99.90
23102;DHT22;11720;51.214;22.574;2023-07-30T03:27:09;18.60;99.90
23102;DHT22;11720;51.214;22.574;2023-07-30T03:29:35;19.40;99.90
23102;DHT22;11720;51.214;22.574;2023-07-30T03:34:27;17.70;99.90
23102;DHT22;11720;51.214;22.574;2023-07-30T03:39:18;17.70;99.90
23102;DHT22;11720;51.214;22.574;2023-07-30T03:44:10;17.70;99.90
23102;DHT22;11720;51.214;22.574;2023-07-30T03:46:36;17.60;99.90
23102;DHT22;11720;51.214;22.574;2023-07-30T03:51:27;17.70;99.90
23102;DHT22;11720;51.214;22.574;2023-07-30T03:53:53;17.70;99.90
23102;DHT22;11720;51.214;22.574;2023-07-30T03:56:19;17.80;99.90
23102;DHT22;11720;51.214;22.574;2023-07-30T03:58:44;17.80;99.90
23102;DHT22;11720;51.214;22.574;2023-07-30T04:01:10;17.90;99.90
23102;DHT22;11720;51.214;22.574;2023-07-30T04:03:36;17.90;99.90
23102;DHT22;11720;51.214;22.574;2023-07-30T04:06:02;17.90;99.90
23102;DHT22;11720;51.214;22.574;2023-07-30T04:08:27;18.00;99.90
23102;DHT22;11720;51.214;22.574;2023-07-30T04:13:19;18.10;99.90
23102;DHT22;11720;51.214;22.574;2023-07-30T04:15:47;18.10;99.90
23102;DHT22;11720;51.214;22.574;2023-07-30T04:18:13;18.20;99.90
23102;DHT22;11720;51.214;22.574;2023-07-30T04:20:40;18.30;99.90
23102;DHT22;11720;51.214;22.574;2023-07-30T04:23:05;18.30;99.90
23102;DHT22;11720;51.214;22.574;2023-07-30T04:25:31;18.30;99.90
23102;DHT22;11720;51.214;22.574;2023-07-30T04:27:56;18.50;99.90
23102;DHT22;11720;51.214;22.574;2023-07-30T04:30:22;18.50;99.90
23102;DHT22;11720;51.214;22.574;2023-07-30T04:32:48;18.50;99.90
23102;DHT22;11720;51.214;22.574;2023-07-30T04:37:39;18.60;99.90
23102;DHT22;11720;51.214;22.574;2023-07-30T04:40:09;18.60;99.90
23102;DHT22;11720;51.214;22.574;2023-07-30T04:42:34;18.70;99.90
23102;DHT22;11720;51.214;22.574;2023-07-30T04:45:00;18.70;99.90
23102;DHT22;11720;51.214;22.574;2023-07-30T04:47:26;18.70;99.90
23102;DHT22;11720;51.214;22.574;2023-07-30T04:49:52;18.90;99.90
23102;DHT22;11720;51.214;22.574;2023-07-30T04:52:18;19.00;99.90
23102;DHT22;11720;51.214;22.574;2023-07-30T04:54:45;19.10;99.90
23102;DHT22;11720;51.214;22.574;2023-07-30T04:57:11;19.20;99.90
23102;DHT22;11720;51.214;22.574;2023-07-30T04:59:37;19.30;99.90
23102;DHT22;11720;51.214;22.574;2023-07-30T05:02:03;19.50;99.90
23102;DHT22;11720;51.214;22.574;2023-07-30T05:06:55;19.60;99.90
23102;DHT22;11720;51.214;22.574;2023-07-30T05:09:22;19.60;99.90
23102;DHT22;11720;51.214;22.574;2023-07-30T05:11:47;19.50;99.90
23102;DHT22;11720;51.214;22.574;2023-07-30T05:19:05;19.50;99.90
23102;DHT22;11720;51.214;22.574;2023-07-30T05:23:57;19.50;99.90
23102;DHT22;11720;51.214;22.574;2023-07-30T05:26:22;19.50;99.90
23102;DHT22;11720;51.214;22.574;2023-07-30T05:28:48;19.60;99.90
23102;DHT22;11720;51.214;22.574;2023-07-30T05:31:14;19.60;99.90
23102;DHT22;11720;51.214;22.574;2023-07-30T05:33:39;19.60;99.90
23102;DHT22;11720;51.214;22.574;2023-07-30T05:36:05;19.70;99.90
23102;DHT22;11720;51.214;22.574;2023-07-30T05:38:31;19.70;99.90
23102;DHT22;11720;51.214;22.574;2023-07-30T05:40:57;19.70;99.90
23102;DHT22;11720;51.214;22.574;2023-07-30T05:43:23;19.70;99.90
23102;DHT22;11720;51.214;22.574;2023-07-30T05:45:48;19.70;99.90
23102;DHT22;11720;51.214;22.574;2023-07-30T05:50:40;19.70;99.90
23102;DHT22;11720;51.214;22.574;2023-07-30T05:53:05;19.80;99.90
23102;DHT22;11720;51.214;22.574;2023-07-30T05:55:31;19.80;99.90
23102;DHT22;11720;51.214;22.574;2023-07-30T05:57:57;19.90;99.90
23102;DHT22;11720;51.214;22.574;2023-07-30T06:00:23;20.00;99.90
23102;DHT22;11720;51.214;22.574;2023-07-30T06:02:49;20.10;99.90
23102;DHT22;11720;51.214;22.574;2023-07-30T06:05:15;20.20;99.90
23102;DHT22;11720;51.214;22.574;2023-07-30T06:07:41;20.30;99.90
23102;DHT22;11720;51.214;22.574;2023-07-30T06:10:07;20.40;99.90
23102;DHT22;11720;51.214;22.574;2023-07-30T06:12:32;20.30;99.90
23102;DHT22;11720;51.214;22.574;2023-07-30T06:15:01;20.30;99.90
23102;DHT22;11720;51.214;22.574;2023-07-30T06:17:27;20.30;99.90
23102;DHT22;11720;51.214;22.574;2023-07-30T06:19:52;20.30;99.90
23102;DHT22;11720;51.214;22.574;2023-07-30T06:22:18;20.40;99.90
23102;DHT22;11720;51.214;22.574;2023-07-30T06:24:44;20.50;99.90
23102;DHT22;11720;51.214;22.574;2023-07-30T06:29:36;20.50;99.90
23102;DHT22;11720;51.214;22.574;2023-07-30T06:32:02;20.50;99.90
23102;DHT22;11720;51.214;22.574;2023-07-30T06:39:20;20.40;99.90
23102;DHT22;11720;51.214;22.574;2023-07-30T06:41:47;18.70;99.90
23102;DHT22;11720;51.214;22.574;2023-07-30T06:44:12;20.30;99.90
23102;DHT22;11720;51.214;22.574;2023-07-30T06:46:38;20.30;99.90
23102;DHT22;11720;51.214;22.574;2023-07-30T06:49:11;20.20;99.90
23102;DHT22;11720;51.214;22.574;2023-07-30T06:58:56;20.20;99.90
23102;DHT22;11720;51.214;22.574;2023-07-30T07:03:48;20.30;99.90
23102;DHT22;11720;51.214;22.574;2023-07-30T07:08:40;20.40;99.90
23102;DHT22;11720;51.214;22.574;2023-07-30T07:11:08;20.60;99.90
23102;DHT22;11720;51.214;22.574;2023-07-30T07:16:00;20.60;99.90
23102;DHT22;11720;51.214;22.574;2023-07-30T07:18:38;20.80;99.90
23102;DHT22;11720;51.214;22.574;2023-07-30T07:21:13;20.90;99.90
23102;DHT22;11720;51.214;22.574;2023-07-30T07:23:51;20.00;99.90
23102;DHT22;11720;51.214;22.574;2023-07-30T07:26:34;22.20;99.90
23102;DHT22;11720;51.214;22.574;2023-07-30T07:29:00;20.50;99.90
23102;DHT22;11720;51.214;22.574;2023-07-30T07:31:25;20.50;99.90
23102;DHT22;11720;51.214;22.574;2023-07-30T07:34:15;20.60;99.90
23102;DHT22;11720;51.214;22.574;2023-07-30T07:37:04;20.60;99.90
23102;DHT22;11720;51.214;22.574;2023-07-30T07:46:44;20.90;99.90
23102;DHT22;11720;51.214;22.574;2023-07-30T07:49:10;20.70;99.90
23102;DHT22;11720;51.214;22.574;2023-07-30T07:51:38;21.00;99.90
23102;DHT22;11720;51.214;22.574;2023-07-30T07:54:05;21.00;99.90
23102;DHT22;11720;51.214;22.574;2023-07-30T07:56:41;20.90;99.90
23102;DHT22;11720;51.214;22.574;2023-07-30T08:01:38;20.90;99.90
23102;DHT22;11720;51.214;22.574;2023-07-30T08:09:09;21.00;99.90
23102;DHT22;11720;51.214;22.574;2023-07-30T08:14:01;21.00;99.90
23102;DHT22;11720;51.214;22.574;2023-07-30T08:16:29;21.20;99.90
23102;DHT22;11720;51.214;22.574;2023-07-30T08:18:55;21.30;99.90
23102;DHT22;11720;51.214;22.574;2023-07-30T08:21:21;21.60;99.90
23102;DHT22;11720;51.214;22.574;2023-07-30T08:23:47;21.50;99.90
23102;DHT22;11720;51.214;22.574;2023-07-30T08:28:40;21.80;99.90
23102;DHT22;11720;51.214;22.574;2023-07-30T08:33:34;21.80;99.90
23102;DHT22;11720;51.214;22.574;2023-07-30T08:38:27;21.80;99.90
23102;DHT22;11720;51.214;22.574;2023-07-30T08:48:12;21.90;99.90
23102;DHT22;11720;51.214;22.574;2023-07-30T08:50:41;21.70;99.90
23102;DHT22;11720;51.214;22.574;2023-07-30T08:55:40;21.70;99.90
23102;DHT22;11720;51.214;22.574;2023-07-30T08:58:10;21.70;99.90
23102;DHT22;11720;51.214;22.574;2023-07-30T09:00:38;22.10;99.90
23102;DHT22;11720;51.214;22.574;2023-07-30T09:03:07;19.20;99.90
23102;DHT22;11720;51.214;22.574;2023-07-30T09:05:36;21.70;99.90
23102;DHT22;11720;51.214;22.574;2023-07-30T09:08:03;21.70;99.90
23102;DHT22;11720;51.214;22.574;2023-07-30T09:12:58;21.40;99.90
23102;DHT22;11720;51.214;22.574;2023-07-30T09:15:37;21.40;99.90
23102;DHT22;11720;51.214;22.574;2023-07-30T09:18:06;21.50;99.90
23102;DHT22;11720;51.214;22.574;2023-07-30T09:20:41;21.40;99.90
23102;DHT22;11720;51.214;22.574;2023-07-30T09:25:34;21.30;99.90
23102;DHT22;11720;51.214;22.574;2023-07-30T09:30:27;21.90;99.90
23102;DHT22;11720;51.214;22.574;2023-07-30T09:32:56;21.90;99.90
23102;DHT22;11720;51.214;22.574;2023-07-30T09:35:23;21.90;99.90
23102;DHT22;11720;51.214;22.574;2023-07-30T09:38:00;21.90;99.90
23102;DHT22;11720;51.214;22.574;2023-07-30T09:40:36;22.10;99.90
23102;DHT22;11720;51.214;22.574;2023-07-30T09:43:05;22.10;99.90
23102;DHT22;11720;51.214;22.574;2023-07-30T09:45:37;22.10;99.90
23102;DHT22;11720;51.214;22.574;2023-07-30T09:48:05;22.40;99.90
23102;DHT22;11720;51.214;22.574;2023-07-30T09:53:07;22.40;99.90
23102;DHT22;11720;51.214;22.574;2023-07-30T10:00:27;22.50;99.90
23102;DHT22;11720;51.214;22.574;2023-07-30T10:02:58;22.50;99.90
23102;DHT22;11720;51.214;22.574;2023-07-30T10:05:29;22.70;99.90
23102;DHT22;11720;51.214;22.574;2023-07-30T10:08:04;22.90;99.90
23102;DHT22;11720;51.214;22.574;2023-07-30T10:10:33;23.10;99.90
23102;DHT22;11720;51.214;22.574;2023-07-30T10:13:05;23.10;99.90
23102;DHT22;11720;51.214;22.574;2023-07-30T10:15:34;23.30;99.90
23102;DHT22;11720;51.214;22.574;2023-07-30T10:20:28;22.80;99.90
23102;DHT22;11720;51.214;22.574;2023-07-30T10:22:57;22.60;99.90
23102;DHT22;11720;51.214;22.574;2023-07-30T10:25:42;21.10;99.90
23102;DHT22;11720;51.214;22.574;2023-07-30T10:28:32;22.60;99.90
23102;DHT22;11720;51.214;22.574;2023-07-30T10:31:00;23.00;99.90
23102;DHT22;11720;51.214;22.574;2023-07-30T10:33:50;23.20;99.90
23102;DHT22;11720;51.214;22.574;2023-07-30T10:36:20;23.10;99.90
23102;DHT22;11720;51.214;22.574;2023-07-30T10:38:52;23.70;99.90
23102;DHT22;11720;51.214;22.574;2023-07-30T10:41:19;23.40;99.90
23102;DHT22;11720;51.214;22.574;2023-07-30T10:43:50;23.40;99.90
23102;DHT22;11720;51.214;22.574;2023-07-30T10:46:17;23.60;99.90
23102;DHT22;11720;51.214;22.574;2023-07-30T10:48:45;23.50;99.90
23102;DHT22;11720;51.214;22.574;2023-07-30T10:51:16;23.40;99.90
23102;DHT22;11720;51.214;22.574;2023-07-30T10:53:46;23.70;99.90
23102;DHT22;11720;51.214;22.574;2023-07-30T10:56:13;23.80;99.90
23102;DHT22;11720;51.214;22.574;2023-07-30T10:58:39;24.00;99.90
23102;DHT22;11720;51.214;22.574;2023-07-30T11:01:06;24.10;99.90
23102;DHT22;11720;51.214;22.574;2023-07-30T11:03:32;24.10;99.90
23102;DHT22;11720;51.214;22.574;2023-07-30T11:05:59;24.10;99.90
23102;DHT22;11720;51.214;22.574;2023-07-30T11:08:33;24.10;99.90
23102;DHT22;11720;51.214;22.574;2023-07-30T11:10:59;24.00;99.90
23102;DHT22;11720;51.214;22.574;2023-07-30T11:13:25;24.10;99.90
23102;DHT22;11720;51.214;22.574;2023-07-30T11:15:50;24.40;97.90
23102;DHT22;11720;51.214;22.574;2023-07-30T11:18:16;24.50;98.10
23102;DHT22;11720;51.214;22.574;2023-07-30T11:20:42;24.40;97.80
23102;DHT22;11720;51.214;22.574;2023-07-30T11:23:22;24.40;97.80
23102;DHT22;11720;51.214;22.574;2023-07-30T11:25:49;24.40;98.20
23102;DHT22;11720;51.214;22.574;2023-07-30T11:28:27;24.60;97.60
23102;DHT22;11720;51.214;22.574;2023-07-30T11:30:53;24.60;97.70
23102;DHT22;11720;51.214;22.574;2023-07-30T11:33:20;24.80;98.10
23102;DHT22;11720;51.214;22.574;2023-07-30T11:35:45;25.10;96.00
23102;DHT22;11720;51.214;22.574;2023-07-30T11:38:12;25.60;94.30
23102;DHT22;11720;51.214;22.574;2023-07-30T11:43:04;23.80;92.40
23102;DHT22;11720;51.214;22.574;2023-07-30T11:45:30;25.30;92.90
23102;DHT22;11720;51.214;22.574;2023-07-30T11:48:07;25.30;93.20
23102;DHT22;11720;51.214;22.574;2023-07-30T11:50:50;25.20;92.60
23102;DHT22;11720;51.214;22.574;2023-07-30T11:53:17;25.10;92.40
23102;DHT22;11720;51.214;22.574;2023-07-30T11:55:44;25.10;91.80
23102;DHT22;11720;51.214;22.574;2023-07-30T11:58:11;25.20;92.00
23102;DHT22;11720;51.214;22.574;2023-07-30T12:00:38;25.50;92.50
23102;DHT22;11720;51.214;22.574;2023-07-30T12:03:06;25.40;92.50
23102;DHT22;11720;51.214;22.574;2023-07-30T12:05:37;25.30;91.40
23102;DHT22;11720;51.214;22.574;2023-07-30T12:08:04;25.10;91.20
23102;DHT22;11720;51.214;22.574;2023-07-30T12:10:46;25.40;91.30
23102;DHT22;11720;51.214;22.574;2023-07-30T12:13:19;25.40;90.80
23102;DHT22;11720;51.214;22.574;2023-07-30T12:15:55;25.30;91.20
23102;DHT22;11720;51.214;22.574;2023-07-30T12:18:22;25.20;91.30
23102;DHT22;11720;51.214;22.574;2023-07-30T12:20:49;25.40;91.70
23102;DHT22;11720;51.214;22.574;2023-07-30T12:23:19;25.70;92.30
23102;DHT22;11720;51.214;22.574;2023-07-30T12:25:45;25.60;88.30
23102;DHT22;11720;51.214;22.574;2023-07-30T12:30:37;25.80;88.00
23102;DHT22;11720;51.214;22.574;2023-07-30T12:33:04;25.70;85.40
23102;DHT22;11720;51.214;22.574;2023-07-30T12:35:31;25.60;87.30
23102;DHT22;11720;51.214;22.574;2023-07-30T12:37:58;25.60;86.10
23102;DHT22;11720;51.214;22.574;2023-07-30T12:40:23;25.60;86.90
23102;DHT22;11720;51.214;22.574;2023-07-30T12:42:49;25.80;87.30
23102;DHT22;11720;51.214;22.574;2023-07-30T12:45:15;25.80;86.20
23102;DHT22;11720;51.214;22.574;2023-07-30T12:47:41;25.70;86.70
23102;DHT22;11720;51.214;22.574;2023-07-30T12:50:07;25.60;85.50
23102;DHT22;11720;51.214;22.574;2023-07-30T12:52:33;25.50;86.20
23102;DHT22;11720;51.214;22.574;2023-07-30T12:55:00;25.40;85.70
23102;DHT22;11720;51.214;22.574;2023-07-30T12:57:25;25.30;88.90
23102;DHT22;11720;51.214;22.574;2023-07-30T13:02:17;25.40;89.80
23102;DHT22;11720;51.214;22.574;2023-07-30T13:04:43;25.20;89.10
23102;DHT22;11720;51.214;22.574;2023-07-30T13:07:09;25.50;90.30
23102;DHT22;11720;51.214;22.574;2023-07-30T13:09:35;25.50;87.60
23102;DHT22;11720;51.214;22.574;2023-07-30T13:12:00;25.60;89.20
23102;DHT22;11720;51.214;22.574;2023-07-30T13:14:28;25.40;87.90
23102;DHT22;11720;51.214;22.574;2023-07-30T13:16:54;25.40;88.70
23102;DHT22;11720;51.214;22.574;2023-07-30T13:19:20;25.30;90.20
23102;DHT22;11720;51.214;22.574;2023-07-30T13:21:45;25.30;87.50
23102;DHT22;11720;51.214;22.574;2023-07-30T13:24:11;25.20;86.50
23102;DHT22;11720;51.214;22.574;2023-07-30T13:26:36;25.20;88.00
23102;DHT22;11720;51.214;22.574;2023-07-30T13:29:04;25.30;89.20
23102;DHT22;11720;51.214;22.574;2023-07-30T13:31:30;25.40;87.50
23102;DHT22;11720;51.214;22.574;2023-07-30T13:33:56;25.50;87.20
23102;DHT22;11720;51.214;22.574;2023-07-30T13:36:22;25.50;85.80
23102;DHT22;11720;51.214;22.574;2023-07-30T13:38:47;25.60;87.00
23102;DHT22;11720;51.214;22.574;2023-07-30T13:41:13;25.70;83.50
23102;DHT22;11720;51.214;22.574;2023-07-30T13:46:05;25.90;84.30
23102;DHT22;11720;51.214;22.574;2023-07-30T13:48:31;25.80;85.50
23102;DHT22;11720;51.214;22.574;2023-07-30T13:50:56;25.70;81.00
23102;DHT22;11720;51.214;22.574;2023-07-30T13:53:22;25.60;81.50
23102;DHT22;11720;51.214;22.574;2023-07-30T13:55:48;25.50;84.10
23102;DHT22;11720;51.214;22.574;2023-07-30T13:58:14;25.50;84.80
23102;DHT22;11720;51.214;22.574;2023-07-30T14:00:41;25.40;84.20
23102;DHT22;11720;51.214;22.574;2023-07-30T14:03:10;25.40;87.10
23102;DHT22;11720;51.214;22.574;2023-07-30T14:05:38;25.40;86.60
23102;DHT22;11720;51.214;22.574;2023-07-30T14:08:03;25.60;87.00
23102;DHT22;11720;51.214;22.574;2023-07-30T14:10:29;25.70;84.60
23102;DHT22;11720;51.214;22.574;2023-07-30T14:12:55;25.70;84.10
23102;DHT22;11720;51.214;22.574;2023-07-30T14:15:20;25.60;84.40
23102;DHT22;11720;51.214;22.574;2023-07-30T14:17:46;25.50;85.00
23102;DHT22;11720;51.214;22.574;2023-07-30T14:20:12;25.50;84.40
23102;DHT22;11720;51.214;22.574;2023-07-30T14:22:37;25.40;84.70
23102;DHT22;11720;51.214;22.574;2023-07-30T14:25:03;25.50;85.50
23102;DHT22;11720;51.214;22.574;2023-07-30T14:27:29;25.50;86.10
23102;DHT22;11720;51.214;22.574;2023-07-30T14:29:55;25.50;87.90
23102;DHT22;11720;51.214;22.574;2023-07-30T14:32:21;25.40;86.60
23102;DHT22;11720;51.214;22.574;2023-07-30T14:34:47;25.40;87.50
23102;DHT22;11720;51.214;22.574;2023-07-30T14:37:13;25.50;88.40
23102;DHT22;11720;51.214;22.574;2023-07-30T14:39:39;25.50;88.10
23102;DHT22;11720;51.214;22.574;2023-07-30T14:42:06;25.50;87.80
23102;DHT22;11720;51.214;22.574;2023-07-30T14:44:33;25.30;89.70
23102;DHT22;11720;51.214;22.574;2023-07-30T14:46:58;25.30;88.10
23102;DHT22;11720;51.214;22.574;2023-07-30T14:49:25;22.90;83.60
23102;DHT22;11720;51.214;22.574;2023-07-30T14:51:51;25.30;85.40
23102;DHT22;11720;51.214;22.574;2023-07-30T14:59:24;24.90;86.20
23102;DHT22;11720;51.214;22.574;2023-07-30T15:06:42;24.90;87.10
23102;DHT22;11720;51.214;22.574;2023-07-30T15:09:11;24.80;89.70
23102;DHT22;11720;51.214;22.574;2023-07-30T15:11:38;25.10;90.20
23102;DHT22;11720;51.214;22.574;2023-07-30T15:21:23;24.60;89.10
23102;DHT22;11720;51.214;22.574;2023-07-30T15:23:50;24.60;90.60
23102;DHT22;11720;51.214;22.574;2023-07-30T15:26:15;24.60;89.50
23102;DHT22;11720;51.214;22.574;2023-07-30T15:31:25;24.40;87.00
23102;DHT22;11720;51.214;22.574;2023-07-30T15:33:53;24.40;90.10
23102;DHT22;11720;51.214;22.574;2023-07-30T15:36:19;24.80;91.50
23102;DHT22;11720;51.214;22.574;2023-07-30T15:38:45;24.50;90.50
23102;DHT22;11720;51.214;22.574;2023-07-30T15:41:11;24.50;90.30
23102;DHT22;11720;51.214;22.574;2023-07-30T15:43:36;24.40;90.40
23102;DHT22;11720;51.214;22.574;2023-07-30T15:46:06;24.40;90.10
23102;DHT22;11720;51.214;22.574;2023-07-30T15:48:32;24.40;90.40
23102;DHT22;11720;51.214;22.574;2023-07-30T15:51:03;24.40;90.50
23102;DHT22;11720;51.214;22.574;2023-07-30T15:53:30;24.40;91.10
23102;DHT22;11720;51.214;22.574;2023-07-30T15:56:00;24.40;90.50
23102;DHT22;11720;51.214;22.574;2023-07-30T15:58:38;24.40;90.50
23102;DHT22;11720;51.214;22.574;2023-07-30T16:01:07;24.40;90.70
23102;DHT22;11720;51.214;22.574;2023-07-30T16:08:32;24.20;90.40
23102;DHT22;11720;51.214;22.574;2023-07-30T16:11:09;24.50;92.00
23102;DHT22;11720;51.214;22.574;2023-07-30T16:16:17;24.40;92.20
23102;DHT22;11720;51.214;22.574;2023-07-30T16:18:50;24.30;91.00
23102;DHT22;11720;51.214;22.574;2023-07-30T16:21:33;24.30;91.40
23102;DHT22;11720;51.214;22.574;2023-07-30T16:24:17;24.10;91.40
23102;DHT22;11720;51.214;22.574;2023-07-30T16:26:46;24.10;90.60
23102;DHT22;11720;51.214;22.574;2023-07-30T16:34:04;24.00;91.00
23102;DHT22;11720;51.214;22.574;2023-07-30T16:36:33;24.00;91.90
23102;DHT22;11720;51.214;22.574;2023-07-30T16:38:58;24.00;91.70
23102;DHT22;11720;51.214;22.574;2023-07-30T16:41:26;24.00;93.80
23102;DHT22;11720;51.214;22.574;2023-07-30T16:46:18;24.00;92.60
23102;DHT22;11720;51.214;22.574;2023-07-30T16:48:44;24.00;95.10
23102;DHT22;11720;51.214;22.574;2023-07-30T16:51:10;23.90;92.50
23102;DHT22;11720;51.214;22.574;2023-07-30T16:53:35;23.80;92.80
23102;DHT22;11720;51.214;22.574;2023-07-30T16:56:13;23.80;93.20
23102;DHT22;11720;51.214;22.574;2023-07-30T17:01:05;23.70;93.40
23102;DHT22;11720;51.214;22.574;2023-07-30T17:03:32;23.70;92.80
23102;DHT22;11720;51.214;22.574;2023-07-30T17:06:01;23.70;94.40
23102;DHT22;11720;51.214;22.574;2023-07-30T17:08:29;23.60;93.90
23102;DHT22;11720;51.214;22.574;2023-07-30T17:10:55;23.60;93.50
23102;DHT22;11720;51.214;22.574;2023-07-30T17:13:22;23.50;95.30
23102;DHT22;11720;51.214;22.574;2023-07-30T17:15:47;23.50;96.30
23102;DHT22;11720;51.214;22.574;2023-07-30T17:18:13;23.50;97.20
23102;DHT22;11720;51.214;22.574;2023-07-30T17:20:43;23.40;96.00
23102;DHT22;11720;51.214;22.574;2023-07-30T17:23:19;23.30;98.40
23102;DHT22;11720;51.214;22.574;2023-07-30T17:25:51;23.20;99.70
23102;DHT22;11720;51.214;22.574;2023-07-30T17:28:17;23.10;99.90
23102;DHT22;11720;51.214;22.574;2023-07-30T17:30:43;23.00;99.90
23102;DHT22;11720;51.214;22.574;2023-07-30T17:33:08;23.00;99.90
23102;DHT22;11720;51.214;22.574;2023-07-30T17:35:34;22.90;99.90
23102;DHT22;11720;51.214;22.574;2023-07-30T17:38:00;22.80;99.90
23102;DHT22;11720;51.214;22.574;2023-07-30T17:40:25;22.70;99.90
23102;DHT22;11720;51.214;22.574;2023-07-30T17:42:52;22.60;99.90
23102;DHT22;11720;51.214;22.574;2023-07-30T17:45:18;22.60;99.90
23102;DHT22;11720;51.214;22.574;2023-07-30T17:47:44;22.50;99.90
23102;DHT22;11720;51.214;22.574;2023-07-30T17:50:10;22.40;99.90
23102;DHT22;11720;51.214;22.574;2023-07-30T17:52:36;22.40;99.90
23102;DHT22;11720;51.214;22.574;2023-07-30T17:55:01;22.30;99.90